Terminal Aerodrome Forecast
Issued by NWS

Home | Current Version | Previous Version | Graphics & Text | Print | Product List | Glossary On
Versions: 1 2 3 4 5 6 7 8 9 10 11 12 13 14 15 16 17 18 19 20 21 22 23 24 25 26 27 28 29 30 31 32 33 34
000
FTUS43 KLOT 191400 AAA
TAFORD
TAF AMD
KORD 191400Z 1914/2018 31012KT P6SM OVC030
     FM191700 33010KT P6SM BKN035
     FM192000 06010KT P6SM SCT040
     FM200200 08006KT P6SM SCT040 BKN180=

USA.gov is the U.S. government's official web portal to all federal, state and local government web resources and services.